Time;durP1;ratioP1;P1;durP2;ratioP2;P2;SDS_P1;SDS_P2;PMS_P1;PMS_P2;Temp;Humidity;BMP_temperature;BMP_pressure;BME280_temperature;BME280_humidity;BME280_pressure;Samples;Min_cycle;Max_cycle;Signal;HPM_P1;HPM_P2
2023/05/21 00:02:03;;;;;;;3.22;0.50;;;15.00;99.90;;;;;;5055506;28;20079;-77
2023/05/21 00:04:30;;;;;;;2.65;0.45;;;15.10;99.90;;;;;;5055428;28;20028;-76
2023/05/21 00:06:58;;;;;;;1.67;0.10;;;15.20;99.90;;;;;;5055337;28;20071;-77
2023/05/21 00:09:24;;;;;;;0.30;0.10;;;15.10;99.90;;;;;;5055342;28;20029;-76
2023/05/21 00:11:49;;;;;;;0.93;0.30;;;15.20;99.90;;;;;;5055254;28;20070;-77
2023/05/21 00:14:15;;;;;;;0.25;0.00;;;15.20;99.90;;;;;;5037246;28;20017;-76
2023/05/21 00:16:41;;;;;;;2.30;0.10;;;15.20;99.90;;;;;;5037394;28;20017;-76
2023/05/21 00:19:09;;;;;;;0.22;0.10;;;15.20;99.90;;;;;;5055463;28;20046;-76
2023/05/21 00:21:34;;;;;;;0.63;0.03;;;15.20;99.90;;;;;;5055034;28;20098;-76
2023/05/21 00:24:00;;;;;;;0.88;0.20;;;15.20;99.90;;;;;;5055186;28;20491;-77
2023/05/21 00:26:25;;;;;;;1.23;0.10;;;15.20;99.90;;;;;;5036919;28;20061;-76
2023/05/21 00:28:51;;;;;;;1.80;0.30;;;15.20;99.90;;;;;;5036945;28;20020;-76
2023/05/21 00:31:17;;;;;;;3.08;0.20;;;15.20;99.90;;;;;;5037030;28;20029;-76
2023/05/21 00:33:43;;;;;;;0.20;0.10;;;15.30;99.90;;;;;;5037166;28;20032;-76
2023/05/21 00:36:13;;;;;;;5.68;0.88;;;15.20;99.90;;;;;;5054762;28;20112;-76
2023/05/21 00:38:44;;;;;;;5.35;0.30;;;15.20;99.90;;;;;;5054767;28;20067;-76
2023/05/21 00:41:10;;;;;;;0.30;0.10;;;15.70;99.90;;;;;;5036902;28;20545;-76
2023/05/21 00:43:39;;;;;;;3.33;0.10;;;15.20;99.90;;;;;;5037169;28;20014;-76
2023/05/21 00:46:10;;;;;;;;;;;15.20;99.90;;;;;;5055258;28;20036;-76
2023/05/21 00:48:37;;;;;;;0.20;0.05;;;15.20;99.90;;;;;;5054727;28;19909;-76
2023/05/21 00:51:02;;;;;;;1.60;0.20;;;15.20;99.90;;;;;;5036738;28;20024;-76
2023/05/21 00:53:29;;;;;;;2.92;0.40;;;16.20;99.90;;;;;;5054622;28;20059;-76
2023/05/21 00:55:54;;;;;;;4.63;0.20;;;15.20;99.90;;;;;;5054457;28;20111;-76
2023/05/21 00:58:20;;;;;;;1.02;0.08;;;15.10;99.90;;;;;;5053278;28;20048;-76
2023/05/21 01:00:46;;;;;;;1.35;0.32;;;15.20;99.90;;;;;;5054328;28;20034;-76
2023/05/21 01:03:12;;;;;;;1.35;0.47;;;15.20;99.90;;;;;;5054369;28;20024;-76
2023/05/21 01:05:38;;;;;;;0.82;0.17;;;15.10;99.90;;;;;;5054254;28;20423;-76
2023/05/21 01:08:04;;;;;;;1.17;0.40;;;15.20;99.90;;;;;;5054178;28;20025;-76
2023/05/21 01:10:30;;;;;;;2.85;0.50;;;15.10;99.90;;;;;;5054003;28;20025;-76
2023/05/21 01:12:57;;;;;;;1.02;0.40;;;15.10;99.90;;;;;;5054144;28;20067;-76
2023/05/21 01:15:23;;;;;;;2.20;0.22;;;15.10;99.90;;;;;;5054155;28;20017;-76
2023/05/21 01:17:50;;;;;;;1.00;0.50;;;15.10;99.90;;;;;;5054107;28;20029;-76
2023/05/21 01:20:18;;;;;;;0.80;0.45;;;15.10;99.90;;;;;;5053817;28;20023;-76
2023/05/21 01:22:56;;;;;;;3.43;0.10;;;15.10;99.90;;;;;;5054482;28;20189;-76
2023/05/21 01:25:22;;;;;;;3.13;0.50;;;15.10;99.90;;;;;;5053993;28;20052;-76
2023/05/21 01:27:49;;;;;;;3.80;0.40;;;15.10;99.90;;;;;;5053886;28;20020;-76
2023/05/21 01:30:17;;;;;;;2.33;0.30;;;15.10;99.90;;;;;;5053518;28;20021;-76
2023/05/21 01:33:01;;;;;;;0.75;0.30;;;15.00;99.90;;;;;;5053802;28;20020;-76
2023/05/21 01:35:37;;;;;;;1.10;0.20;;;15.10;99.90;;;;;;5035938;28;20025;-76
2023/05/21 01:38:36;;;;;;;1.67;0.47;;;15.10;99.90;;;;;;5053625;28;20464;-76
2023/05/21 01:41:12;;;;;;;3.45;0.32;;;15.10;99.90;;;;;;5050740;28;20511;-76
2023/05/21 01:43:42;;;;;;;1.90;0.30;;;15.00;99.90;;;;;;5053906;28;20563;-76
2023/05/21 01:46:11;;;;;;;1.27;0.68;;;15.00;99.90;;;;;;5053498;28;20021;-77
2023/05/21 01:48:37;;;;;;;4.13;0.52;;;15.00;99.90;;;;;;5053613;28;20063;-76
2023/05/21 01:51:04;;;;;;;1.08;0.35;;;15.00;99.90;;;;;;5035717;28;20047;-76
2023/05/21 01:53:30;;;;;;;1.13;0.52;;;15.00;99.90;;;;;;5035631;28;20071;-76
2023/05/21 01:55:56;;;;;;;2.30;0.50;;;15.00;99.90;;;;;;5035703;28;20416;-76
2023/05/21 01:58:23;;;;;;;1.35;0.57;;;15.00;99.90;;;;;;5035321;28;20036;-76
2023/05/21 02:00:51;;;;;;;1.55;0.70;;;15.00;99.90;;;;;;5053174;28;20044;-76
2023/05/21 02:03:19;;;;;;;1.98;0.77;;;15.20;99.90;;;;;;5053348;28;20044;-76
2023/05/21 02:05:45;;;;;;;1.43;0.87;;;15.00;99.90;;;;;;5053270;28;20024;-76
2023/05/21 02:08:13;;;;;;;1.38;0.30;;;15.00;99.90;;;;;;5052685;28;20110;-76
2023/05/21 02:10:39;;;;;;;1.17;0.45;;;15.00;99.90;;;;;;5053110;28;20017;-76
2023/05/21 02:13:05;;;;;;;1.00;0.28;;;14.90;99.90;;;;;;5053150;28;20115;-76
2023/05/21 02:15:33;;;;;;;2.28;0.30;;;15.10;99.90;;;;;;5053164;28;20108;-77
2023/05/21 02:17:59;;;;;;;1.90;0.60;;;14.90;99.90;;;;;;5052963;28;20017;-76
2023/05/21 02:20:24;;;;;;;5.70;0.88;;;14.80;99.90;;;;;;5035006;28;20025;-77
2023/05/21 02:22:50;;;;;;;3.10;0.95;;;14.80;99.90;;;;;;5053188;28;20377;-77
2023/05/21 02:25:17;;;;;;;4.57;0.40;;;14.80;99.90;;;;;;5035180;28;20021;-76
2023/05/21 02:27:43;;;;;;;0.80;0.38;;;14.80;99.90;;;;;;5035465;28;20017;-76
2023/05/21 02:30:10;;;;;;;2.67;0.30;;;14.80;99.90;;;;;;5052896;28;20025;-77
2023/05/21 02:32:38;;;;;;;1.95;0.80;;;14.80;99.90;;;;;;5035069;28;20021;-76
2023/05/21 02:35:04;;;;;;;1.75;0.55;;;14.80;99.90;;;;;;5052976;28;20520;-76
2023/05/21 02:37:34;;;;;;;0.65;0.30;;;14.70;99.90;;;;;;5053065;28;20029;-76
2023/05/21 02:40:03;;;;;;;0.65;0.30;;;14.70;99.90;;;;;;5053133;28;20111;-76
2023/05/21 02:42:28;;;;;;;2.35;0.50;;;14.70;99.90;;;;;;5034724;28;20028;-77
2023/05/21 02:44:55;;;;;;;1.60;0.43;;;;;;;;;;5034956;28;20476;-77
2023/05/21 02:47:22;;;;;;;1.45;0.70;;;14.70;99.90;;;;;;5052785;28;20029;-76
2023/05/21 02:49:49;;;;;;;4.57;0.82;;;14.70;99.90;;;;;;5034714;28;20051;-76
2023/05/21 02:52:17;;;;;;;4.90;0.55;;;14.60;99.90;;;;;;5052545;28;20033;-76
2023/05/21 02:54:43;;;;;;;1.33;0.60;;;14.70;99.90;;;;;;5052780;28;20398;-76
2023/05/21 02:57:08;;;;;;;1.73;0.60;;;14.90;99.90;;;;;;5034863;28;20128;-77
2023/05/21 02:59:34;;;;;;;3.78;0.73;;;14.60;99.90;;;;;;5052612;28;20031;-76
2023/05/21 03:01:59;;;;;;;2.47;0.57;;;14.70;99.90;;;;;;5034659;28;20119;-76
2023/05/21 03:04:27;;;;;;;0.88;0.30;;;14.60;99.90;;;;;;5052524;28;20456;-76
2023/05/21 03:06:54;;;;;;;1.42;0.45;;;14.70;99.90;;;;;;5034745;28;20063;-77
2023/05/21 03:09:22;;;;;;;5.13;0.63;;;14.60;99.90;;;;;;5052482;28;20021;-76
2023/05/21 03:11:49;;;;;;;5.60;1.33;;;14.50;99.90;;;;;;5052667;28;20021;-76
2023/05/21 03:14:15;;;;;;;1.20;0.40;;;14.60;99.90;;;;;;5052466;28;20492;-76
2023/05/21 03:16:42;;;;;;;4.00;1.20;;;14.60;99.90;;;;;;5052590;28;20498;-76
2023/05/21 03:19:08;;;;;;;1.55;0.60;;;14.60;99.90;;;;;;5052709;28;20087;-76
2023/05/21 03:21:35;;;;;;;1.23;0.50;;;14.60;99.90;;;;;;5055279;28;20032;-76
2023/05/21 03:24:01;;;;;;;3.22;1.48;;;14.90;99.90;;;;;;5038369;28;20017;-77
2023/05/21 03:26:28;;;;;;;4.80;1.55;;;14.60;99.90;;;;;;5056113;28;20032;-77
2023/05/21 03:28:55;;;;;;;1.77;0.77;;;14.50;99.90;;;;;;5056121;28;20021;-77
2023/05/21 03:31:21;;;;;;;2.28;1.00;;;14.50;99.90;;;;;;5056102;28;20025;-77
2023/05/21 03:33:46;;;;;;;2.92;0.98;;;14.50;99.90;;;;;;5056133;28;20024;-76
2023/05/21 03:36:12;;;;;;;3.15;0.50;;;14.60;99.90;;;;;;5055964;28;20029;-76
2023/05/21 03:38:37;;;;;;;1.42;0.57;;;14.50;99.90;;;;;;5055928;28;20021;-76
2023/05/21 03:41:03;;;;;;;1.73;0.57;;;14.50;99.90;;;;;;5037768;28;20585;-76
2023/05/21 03:43:29;;;;;;;2.03;0.90;;;14.50;99.90;;;;;;5038048;28;20032;-76
2023/05/21 03:45:55;;;;;;;1.73;0.80;;;14.50;99.90;;;;;;5037976;28;20361;-77
2023/05/21 03:48:20;;;;;;;1.63;0.60;;;14.50;99.90;;;;;;5037585;28;20116;-76
2023/05/21 03:50:46;;;;;;;2.10;0.43;;;14.50;99.90;;;;;;5037865;28;20029;-76
2023/05/21 03:53:12;;;;;;;2.70;1.02;;;14.40;99.90;;;;;;5055645;28;20096;-76
2023/05/21 03:55:38;;;;;;;6.75;0.80;;;14.40;99.90;;;;;;5056026;28;20053;-76
2023/05/21 03:58:03;;;;;;;3.05;0.93;;;14.40;99.90;;;;;;5055606;28;20053;-76
2023/05/21 04:00:31;;;;;;;1.33;0.70;;;14.40;99.90;;;;;;5055449;28;20392;-76
2023/05/21 04:02:57;;;;;;;2.30;0.80;;;14.40;99.90;;;;;;5055554;28;20025;-76
2023/05/21 04:05:23;;;;;;;4.32;0.45;;;14.40;99.90;;;;;;5037627;28;20017;-77
2023/05/21 04:07:48;;;;;;;2.28;0.60;;;14.40;99.90;;;;;;5037467;28;20025;-77
2023/05/21 04:10:14;;;;;;;1.60;0.50;;;14.40;99.90;;;;;;5037466;28;20021;-77
2023/05/21 04:12:40;;;;;;;4.10;0.50;;;14.40;99.90;;;;;;5037809;28;20032;-76
2023/05/21 04:15:06;;;;;;;4.72;0.90;;;14.40;99.90;;;;;;5055320;28;20025;-76
2023/05/21 04:17:33;;;;;;;2.42;0.60;;;14.40;99.90;;;;;;5055285;28;20086;-76
2023/05/21 04:19:59;;;;;;;1.95;0.32;;;14.40;99.90;;;;;;5055141;28;20051;-76
2023/05/21 04:22:25;;;;;;;0.60;0.40;;;14.40;99.90;;;;;;5055073;28;20064;-76
2023/05/21 04:24:53;;;;;;;2.30;1.00;;;14.80;99.90;;;;;;5055244;28;20060;-76
2023/05/21 04:27:22;;;;;;;3.25;0.93;;;14.40;99.90;;;;;;5055045;28;20393;-77
2023/05/21 04:29:48;;;;;;;1.48;0.40;;;14.40;99.90;;;;;;5055240;28;20057;-76
2023/05/21 04:32:16;;;;;;;3.13;0.40;;;14.40;99.90;;;;;;5054811;28;20028;-76
2023/05/21 04:34:43;;;;;;;2.03;0.77;;;14.50;99.90;;;;;;5055003;28;20483;-77
2023/05/21 04:37:08;;;;;;;1.48;0.60;;;14.40;99.90;;;;;;5037071;28;20035;-76
2023/05/21 04:39:35;;;;;;;2.50;0.65;;;14.50;99.90;;;;;;5054811;28;20484;-76
2023/05/21 04:42:01;;;;;;;1.67;0.68;;;14.50;99.90;;;;;;5036926;28;20021;-76
2023/05/21 04:44:28;;;;;;;1.55;0.50;;;14.50;99.90;;;;;;5054546;28;20508;-76
2023/05/21 04:46:53;;;;;;;2.40;0.75;;;14.50;99.90;;;;;;5036826;28;20067;-76
2023/05/21 04:49:22;;;;;;;3.75;1.27;;;14.50;99.90;;;;;;5054152;28;20037;-76
2023/05/21 04:51:51;;;;;;;3.50;0.65;;;14.50;99.90;;;;;;5054806;28;20392;-76
2023/05/21 04:54:16;;;;;;;3.42;1.05;;;14.50;99.90;;;;;;5054447;28;20029;-77
2023/05/21 04:56:46;;;;;;;2.58;0.82;;;14.50;99.90;;;;;;5054400;28;20087;-76
2023/05/21 04:59:12;;;;;;;1.77;0.47;;;14.50;99.90;;;;;;5054355;28;20028;-76
2023/05/21 05:01:38;;;;;;;1.98;0.70;;;14.60;99.90;;;;;;5054097;28;20033;-76
2023/05/21 05:04:04;;;;;;;3.08;0.93;;;14.50;99.90;;;;;;5054372;28;20429;-76
2023/05/21 05:06:29;;;;;;;4.05;1.25;;;14.60;99.90;;;;;;5054186;28;20025;-76
2023/05/21 05:08:55;;;;;;;1.38;0.60;;;14.60;99.90;;;;;;5036507;28;20090;-76
2023/05/21 05:11:21;;;;;;;1.83;0.63;;;14.60;99.90;;;;;;5054155;28;20033;-76
2023/05/21 05:13:46;;;;;;;1.23;0.75;;;14.60;99.90;;;;;;5054112;28;20025;-76
2023/05/21 05:16:13;;;;;;;3.70;0.98;;;14.80;99.90;;;;;;5054142;28;20025;-77
2023/05/21 05:18:38;;;;;;;3.80;1.15;;;14.70;99.90;;;;;;5036090;28;20021;-76
2023/05/21 05:21:04;;;;;;;1.45;0.57;;;;;;;;;;5036079;28;20373;-76
2023/05/21 05:23:30;;;;;;;6.43;1.00;;;14.80;99.90;;;;;;5036192;28;20021;-76
2023/05/21 05:25:55;;;;;;;2.33;1.20;;;14.80;99.90;;;;;;5036105;28;20078;-76
2023/05/21 05:28:21;;;;;;;2.47;0.77;;;14.80;99.90;;;;;;5053679;28;20021;-76
2023/05/21 05:30:47;;;;;;;3.78;1.05;;;15.80;99.90;;;;;;5035960;28;20031;-77
2023/05/21 05:33:12;;;;;;;3.33;1.33;;;14.90;99.90;;;;;;5035891;28;20427;-76
2023/05/21 05:35:38;;;;;;;2.97;0.88;;;14.90;99.90;;;;;;5053963;28;20027;-76
2023/05/21 05:38:03;;;;;;;1.13;0.50;;;15.00;99.90;;;;;;5053736;28;20068;-76
2023/05/21 05:40:29;;;;;;;3.72;0.60;;;15.00;99.90;;;;;;5035679;28;20052;-76
2023/05/21 05:42:54;;;;;;;3.42;0.93;;;15.00;99.90;;;;;;5053088;28;20175;-76
2023/05/21 05:45:20;;;;;;;3.35;0.85;;;15.00;99.90;;;;;;5035709;28;20498;-76
2023/05/21 05:47:46;;;;;;;2.78;0.70;;;15.00;99.90;;;;;;5053410;28;20412;-76
2023/05/21 05:50:11;;;;;;;2.75;0.95;;;15.00;99.90;;;;;;5053300;28;20058;-76
2023/05/21 05:52:37;;;;;;;1.48;0.70;;;15.10;99.90;;;;;;5035656;28;20029;-76
2023/05/21 05:55:03;;;;;;;3.47;1.10;;;15.10;99.90;;;;;;5035687;28;20032;-77
2023/05/21 05:57:28;;;;;;;4.07;1.20;;;15.10;99.90;;;;;;5053387;28;20029;-76
2023/05/21 05:59:55;;;;;;;2.78;0.90;;;15.10;99.90;;;;;;5053238;28;20024;-76
2023/05/21 06:02:20;;;;;;;3.03;1.08;;;15.20;99.90;;;;;;5053082;28;20429;-76
2023/05/21 06:04:46;;;;;;;1.55;0.77;;;15.20;99.90;;;;;;5053292;28;20021;-76
2023/05/21 06:07:11;;;;;;;4.32;1.50;;;15.30;99.90;;;;;;5035438;28;20057;-76
2023/05/21 06:09:37;;;;;;;4.75;1.50;;;15.40;99.90;;;;;;5053133;28;20100;-76
2023/05/21 06:12:07;;;;;;;6.43;1.67;;;15.40;99.90;;;;;;5053017;28;20035;-77
2023/05/21 06:14:32;;;;;;;3.35;1.13;;;15.40;99.90;;;;;;5053069;28;20013;-76
2023/05/21 06:16:58;;;;;;;3.97;0.95;;;15.60;99.90;;;;;;5053187;28;20484;-76
2023/05/21 06:19:23;;;;;;;3.10;1.38;;;15.70;99.90;;;;;;5052985;28;20044;-76
2023/05/21 06:21:49;;;;;;;4.85;1.00;;;15.80;99.90;;;;;;5053039;28;20025;-76
2023/05/21 06:24:15;;;;;;;1.30;1.05;;;15.90;99.90;;;;;;5052896;28;20033;-76
2023/05/21 06:26:41;;;;;;;3.17;1.67;;;16.00;99.90;;;;;;5053024;28;20013;-76
2023/05/21 06:29:06;;;;;;;4.53;1.70;;;16.10;99.90;;;;;;5035074;28;20430;-76
2023/05/21 06:31:32;;;;;;;6.13;1.50;;;16.10;99.90;;;;;;5052926;28;20100;-77
2023/05/21 06:33:59;;;;;;;6.25;1.50;;;17.30;99.90;;;;;;5053409;28;20025;-76
2023/05/21 06:36:28;;;;;;;3.75;1.33;;;16.30;99.90;;;;;;5052711;28;20091;-76
2023/05/21 06:38:55;;;;;;;2.67;1.10;;;16.40;99.90;;;;;;5053178;28;20021;-76
2023/05/21 06:41:21;;;;;;;2.58;0.90;;;16.60;99.90;;;;;;5034843;28;20476;-77
2023/05/21 06:43:47;;;;;;;8.23;1.63;;;16.70;99.90;;;;;;5052978;28;20021;-77
2023/05/21 06:46:12;;;;;;;6.13;2.28;;;17.00;99.90;;;;;;5052896;28;20021;-76
2023/05/21 06:48:38;;;;;;;2.80;1.13;;;17.20;99.90;;;;;;5034879;28;20039;-76
2023/05/21 06:51:03;;;;;;;2.17;1.40;;;17.30;99.90;;;;;;5053019;28;20068;-76
2023/05/21 06:53:29;;;;;;;8.90;1.92;;;17.50;99.90;;;;;;5052771;28;20480;-76
2023/05/21 06:55:55;;;;;;;3.35;1.73;;;17.80;99.90;;;;;;5054702;28;20021;-76
2023/05/21 06:58:21;;;;;;;3.17;1.45;;;18.00;99.90;;;;;;5056695;28;20021;-76
2023/05/21 07:00:47;;;;;;;2.85;1.42;;;17.90;99.90;;;;;;5056649;28;20017;-76
2023/05/21 07:03:13;;;;;;;5.22;1.17;;;18.00;99.90;;;;;;5056650;28;20025;-76
2023/05/21 07:05:38;;;;;;;4.38;1.42;;;18.00;99.90;;;;;;5056682;28;20096;-76
2023/05/21 07:08:04;;;;;;;8.77;2.17;;;18.10;99.90;;;;;;5056522;28;20017;-76
2023/05/21 07:10:29;;;;;;;2.75;1.23;;;18.00;99.90;;;;;;5056627;28;20017;-76
2023/05/21 07:12:55;;;;;;;2.97;1.50;;;18.00;99.90;;;;;;5056606;28;20100;-76
2023/05/21 07:15:21;;;;;;;5.93;2.10;;;18.90;99.90;;;;;;5056498;28;20021;-76
2023/05/21 07:17:46;;;;;;;4.30;1.83;;;18.10;99.90;;;;;;5038546;28;20110;-76
2023/05/21 07:20:12;;;;;;;5.15;1.55;;;18.30;99.90;;;;;;5056238;28;20017;-76
2023/05/21 07:22:38;;;;;;;3.40;1.45;;;18.10;99.90;;;;;;5056555;28;20108;-76
2023/05/21 07:25:05;;;;;;;3.38;1.83;;;18.10;99.90;;;;;;5056317;28;20054;-76
2023/05/21 07:27:30;;;;;;;4.88;1.65;;;18.00;99.90;;;;;;5056499;28;20079;-76
2023/05/21 07:29:56;;;;;;;4.35;1.95;;;17.70;99.90;;;;;;5056328;28;20365;-76
2023/05/21 07:32:21;;;;;;;2.53;1.38;;;17.60;99.90;;;;;;5056208;28;20485;-76
2023/05/21 07:34:47;;;;;;;6.90;1.77;;;17.70;99.90;;;;;;5056282;28;20029;-76
2023/05/21 07:37:13;;;;;;;5.78;1.65;;;17.80;99.90;;;;;;5038200;28;20024;-76
2023/05/21 07:39:39;;;;;;;5.13;2.03;;;17.90;99.90;;;;;;5056151;28;20488;-76
2023/05/21 07:42:04;;;;;;;3.85;1.65;;;18.00;99.90;;;;;;5055871;28;20036;-76
2023/05/21 07:44:30;;;;;;;3.42;1.20;;;18.00;99.90;;;;;;5055872;28;20029;-76
2023/05/21 07:46:56;;;;;;;3.45;1.67;;;19.70;99.90;;;;;;5038104;28;20051;-76
2023/05/21 07:49:22;;;;;;;4.45;1.30;;;18.20;99.90;;;;;;5038009;28;20061;-76
2023/05/21 07:51:47;;;;;;;2.58;1.50;;;18.30;99.90;;;;;;5038035;28;20021;-74
2023/05/21 07:54:13;;;;;;;2.28;1.17;;;18.80;99.90;;;;;;5056045;28;20025;-74
2023/05/21 07:56:39;;;;;;;2.90;1.25;;;18.60;99.90;;;;;;5055701;28;20020;-74
2023/05/21 07:59:04;;;;;;;3.75;1.60;;;18.80;99.90;;;;;;5055709;28;20029;-74
2023/05/21 08:01:30;;;;;;;5.40;1.92;;;20.20;99.90;;;;;;5037911;28;20483;-74
2023/05/21 08:03:55;;;;;;;3.33;1.35;;;21.00;99.90;;;;;;5055676;28;20017;-74
2023/05/21 08:06:23;;;;;;;3.47;2.00;;;;;;;;;;5055153;28;20027;-74
2023/05/21 08:08:48;;;;;;;6.80;1.83;;;18.90;99.90;;;;;;5037665;28;20075;-74
2023/05/21 08:11:14;;;;;;;3.22;0.95;;;18.90;99.90;;;;;;5055623;28;20025;-74
2023/05/21 08:13:40;;;;;;;3.70;1.42;;;19.60;99.90;;;;;;5037491;28;20060;-74
2023/05/21 08:16:05;;;;;;;3.03;1.40;;;19.00;99.90;;;;;;5055544;28;20079;-74
2023/05/21 08:18:31;;;;;;;6.97;1.23;;;19.20;99.90;;;;;;5055252;28;20025;-74
2023/05/21 08:20:57;;;;;;;2.63;1.23;;;19.30;99.90;;;;;;5037640;28;20021;-74
2023/05/21 08:23:23;;;;;;;2.42;0.80;;;20.20;99.90;;;;;;5055702;28;20048;-74
2023/05/21 08:25:48;;;;;;;4.75;1.85;;;19.40;99.90;;;;;;5037477;28;20476;-74
2023/05/21 08:28:14;;;;;;;2.03;1.00;;;19.80;99.90;;;;;;5037333;28;20423;-74
2023/05/21 08:30:40;;;;;;;5.07;1.80;;;19.80;99.90;;;;;;5038113;28;20108;-74
2023/05/21 08:33:05;;;;;;;4.10;1.42;;;19.90;99.90;;;;;;5037521;28;20442;-74
2023/05/21 08:35:31;;;;;;;1.88;1.20;;;20.00;99.90;;;;;;5037128;28;20473;-74
2023/05/21 08:37:57;;;;;;;3.53;1.25;;;20.10;99.90;;;;;;5037089;28;20017;-74
2023/05/21 08:40:23;;;;;;;5.65;1.10;;;20.10;99.90;;;;;;5054896;28;20103;-74
2023/05/21 08:42:49;;;;;;;4.25;1.38;;;20.10;99.90;;;;;;5054906;28;20569;-74
2023/05/21 08:45:19;;;;;;;5.32;2.28;;;20.00;99.90;;;;;;5055212;28;20047;-74
2023/05/21 08:47:45;;;;;;;9.50;1.70;;;19.90;99.90;;;;;;5055143;28;20481;-77
2023/05/21 08:50:15;;;;;;;3.28;1.42;;;19.90;99.90;;;;;;5037193;28;20536;-77
2023/05/21 08:52:40;;;;;;;2.92;1.80;;;19.90;99.90;;;;;;5037032;28;20067;-77
2023/05/21 08:55:07;;;;;;;2.75;1.33;;;19.80;99.90;;;;;;5036568;28;20427;-77
2023/05/21 08:57:33;;;;;;;3.97;1.90;;;19.80;99.90;;;;;;5054716;28;20024;-77
2023/05/21 09:00:00;;;;;;;2.90;1.70;;;19.90;99.90;;;;;;5054398;28;20079;-77
2023/05/21 09:02:26;;;;;;;10.15;2.08;;;20.00;99.90;;;;;;5054519;28;20051;-77
2023/05/21 09:04:56;;;;;;;6.28;2.08;;;20.10;99.90;;;;;;5036963;28;20028;-77
2023/05/21 09:07:24;;;;;;;2.53;1.35;;;20.20;99.90;;;;;;5036744;28;20021;-77
2023/05/21 09:09:55;;;;;;;3.78;1.95;;;20.20;99.90;;;;;;5054827;28;20021;-77
2023/05/21 09:12:20;;;;;;;3.28;1.38;;;20.50;99.90;;;;;;5054524;28;20028;-77
2023/05/21 09:14:46;;;;;;;6.75;1.83;;;20.30;99.90;;;;;;5036517;28;20156;-77
2023/05/21 09:17:13;;;;;;;3.72;1.20;;;20.40;99.90;;;;;;5054470;28;20384;-77
2023/05/21 09:20:17;;;;;;;5.47;1.60;;;20.40;99.90;;;;;;5053940;28;20400;-77
2023/05/21 09:22:47;;;;;;;2.70;1.40;;;20.50;99.90;;;;;;5054306;28;20018;-77
2023/05/21 09:25:15;;;;;;;2.90;1.23;;;20.70;99.90;;;;;;5054242;28;20040;-76
2023/05/21 09:27:41;;;;;;;3.05;1.95;;;20.70;99.90;;;;;;5054040;28;20028;-77
2023/05/21 09:30:12;;;;;;;4.05;1.42;;;20.70;99.90;;;;;;5053975;28;20017;-77
2023/05/21 09:32:39;;;;;;;3.58;1.80;;;20.70;99.90;;;;;;5054068;28;20103;-77
2023/05/21 09:35:14;;;;;;;3.05;1.50;;;20.90;99.90;;;;;;5036228;28;20455;-77
2023/05/21 09:37:44;;;;;;;6.35;1.95;;;21.00;99.90;;;;;;5053927;28;20035;-77
2023/05/21 09:40:11;;;;;;;3.15;1.30;;;21.10;99.90;;;;;;5054324;28;20051;-76
2023/05/21 09:42:42;;;;;;;4.85;1.75;;;21.10;99.90;;;;;;5053917;28;20032;-77
2023/05/21 09:45:10;;;;;;;2.05;1.15;;;21.10;99.90;;;;;;5053691;28;20021;-77
2023/05/21 09:47:42;;;;;;;4.22;1.50;;;21.30;99.90;;;;;;5035730;28;20104;-77
2023/05/21 09:50:12;;;;;;;8.18;1.90;;;22.10;99.90;;;;;;5035703;28;20047;-77
2023/05/21 09:52:38;;;;;;;2.47;1.08;;;21.40;99.90;;;;;;5035717;28;20028;-77
2023/05/21 09:55:05;;;;;;;4.10;1.92;;;21.30;99.90;;;;;;5035860;28;20037;-77
2023/05/21 09:57:31;;;;;;;2.70;1.05;;;21.30;99.90;;;;;;5035929;28;20094;-77
2023/05/21 09:59:57;;;;;;;3.65;1.60;;;21.00;99.90;;;;;;5053368;28;20069;-77
2023/05/21 10:02:25;;;;;;;2.17;1.30;;;20.90;99.90;;;;;;5053315;28;20112;-76
2023/05/21 10:04:54;;;;;;;4.25;1.48;;;21.00;99.90;;;;;;5053521;28;20010;-77
2023/05/21 10:07:24;;;;;;;5.68;1.50;;;21.10;99.90;;;;;;5053371;28;20020;-77
2023/05/21 10:09:55;;;;;;;1.90;0.90;;;21.30;99.90;;;;;;5053271;28;20499;-77
2023/05/21 10:12:26;;;;;;;6.00;1.95;;;21.50;99.90;;;;;;5053227;28;20499;-77
2023/05/21 10:15:00;;;;;;;5.38;2.20;;;21.80;99.90;;;;;;5035843;28;20030;-77
2023/05/21 10:17:27;;;;;;;2.72;1.35;;;22.00;99.90;;;;;;5053548;28;20480;-77
2023/05/21 10:19:58;;;;;;;3.88;1.30;;;22.10;99.90;;;;;;5053117;28;20028;-76
2023/05/21 10:22:24;;;;;;;3.80;1.85;;;22.30;99.90;;;;;;5053023;28;20025;-77
2023/05/21 10:24:51;;;;;;;2.45;1.17;;;22.40;99.90;;;;;;5053171;28;20018;-77
2023/05/21 10:27:18;;;;;;;3.90;1.55;;;22.50;99.90;;;;;;5035225;28;20032;-77
2023/05/21 10:29:44;;;;;;;2.50;1.50;;;22.30;99.90;;;;;;5051226;28;20362;-77
2023/05/21 10:32:14;;;;;;;6.28;1.83;;;22.40;99.90;;;;;;5053023;28;20436;-77
2023/05/21 10:34:42;;;;;;;3.83;1.60;;;22.60;99.90;;;;;;5035473;28;20072;-77
2023/05/21 10:37:09;;;;;;;4.38;1.73;;;22.80;99.90;;;;;;5053110;28;20029;-77
2023/05/21 10:39:37;;;;;;;7.85;1.45;;;22.90;99.90;;;;;;5052926;28;20024;-77
2023/05/21 10:42:08;;;;;;;5.47;1.67;;;23.10;99.90;;;;;;5053048;28;20025;-77
2023/05/21 10:44:59;;;;;;;2.90;1.20;;;23.30;99.90;;;;;;5052824;28;20079;-77
2023/05/21 10:47:42;;;;;;;4.28;1.50;;;23.50;99.90;;;;;;5052968;28;20500;-76
2023/05/21 10:51:00;;;;;;;4.45;1.33;;;23.60;99.80;;;;;;5053029;28;20033;-77
2023/05/21 10:53:31;;;;;;;3.00;1.88;;;23.70;99.10;;;;;;5012144;28;20396;-77
2023/05/21 10:56:20;;;;;;;3.90;1.13;;;23.30;98.70;;;;;;5052960;28;20389;-77
2023/05/21 10:59:01;;;;;;;3.22;0.93;;;22.80;99.90;;;;;;5052633;28;20067;-77
2023/05/21 11:01:32;;;;;;;3.85;1.08;;;22.80;99.90;;;;;;5052623;28;20377;-76
2023/05/21 11:03:58;;;;;;;3.53;1.60;;;22.60;99.90;;;;;;5034688;28;20028;-77
2023/05/21 11:06:25;;;;;;;4.85;1.73;;;22.30;99.90;;;;;;5034820;28;20201;-77
2023/05/21 11:08:52;;;;;;;3.08;1.52;;;22.00;99.90;;;;;;5035346;28;20112;-76
2023/05/21 11:11:49;;;;;;;4.35;1.67;;;22.00;99.90;;;;;;5053079;28;20043;-77
2023/05/21 11:14:39;;;;;;;2.10;1.35;;;21.80;99.90;;;;;;5034629;28;20488;-77
2023/05/21 11:17:08;;;;;;;2.47;1.10;;;21.60;99.90;;;;;;5052794;28;20059;-77
2023/05/21 11:19:33;;;;;;;;;;;21.60;99.90;;;;;;5035118;28;20032;-77
2023/05/21 11:21:59;;;;;;;3.58;0.75;;;21.50;99.90;;;;;;5052761;28;20296;-77
2023/05/21 11:24:27;;;;;;;4.20;1.65;;;21.80;99.90;;;;;;5052557;28;20021;-77
2023/05/21 11:26:57;;;;;;;4.93;1.67;;;21.90;99.90;;;;;;5052658;28;20354;-77
2023/05/21 11:29:39;;;;;;;2.72;1.13;;;22.10;99.90;;;;;;5052529;28;20443;-77
2023/05/21 11:32:07;;;;;;;3.08;1.30;;;22.10;99.90;;;;;;5052528;28;20029;-77
2023/05/21 11:34:46;;;;;;;4.18;1.42;;;22.10;99.90;;;;;;5052449;28;20029;-77
2023/05/21 11:37:19;;;;;;;2.92;1.45;;;22.20;99.90;;;;;;5052685;28;20581;-76
2023/05/21 11:39:45;;;;;;;5.00;1.35;;;22.30;99.90;;;;;;5034832;28;20036;-77
2023/05/21 11:42:11;;;;;;;5.32;1.73;;;22.70;99.90;;;;;;5054645;28;20104;-77
2023/05/21 11:44:40;;;;;;;5.07;1.60;;;23.00;99.90;;;;;;5056193;28;20053;-77
2023/05/21 11:47:08;;;;;;;2.95;1.33;;;23.30;99.90;;;;;;5055873;28;20108;-76
2023/05/21 11:49:35;;;;;;;3.63;1.58;;;23.60;99.90;;;;;;5037753;28;20029;-77
2023/05/21 11:52:01;;;;;;;2.53;1.13;;;23.90;99.90;;;;;;5055827;28;20438;-77
2023/05/21 11:54:32;;;;;;;3.95;1.58;;;24.30;99.90;;;;;;5055657;28;20025;-77
2023/05/21 11:56:59;;;;;;;2.40;0.70;;;24.60;99.10;;;;;;5055878;28;20025;-77
2023/05/21 11:59:25;;;;;;;4.53;1.83;;;24.90;98.40;;;;;;5037707;28;20160;-77
2023/05/21 12:01:50;;;;;;;3.63;1.42;;;25.10;97.90;;;;;;5055669;28;20136;-76
2023/05/21 12:04:16;;;;;;;2.80;1.30;;;25.10;96.70;;;;;;5055639;28;20029;-77
2023/05/21 12:06:42;;;;;;;2.00;0.95;;;25.50;97.10;;;;;;5055266;28;20017;-77
2023/05/21 12:09:11;;;;;;;5.82;1.50;;;26.00;96.20;;;;;;5055329;28;20071;-77
2023/05/21 12:11:40;;;;;;;2.58;1.70;;;26.20;95.20;;;;;;5055391;28;20373;-76
2023/05/21 12:14:15;;;;;;;7.50;1.63;;;26.30;93.70;;;;;;5055415;28;20036;-76
2023/05/21 12:16:40;;;;;;;3.88;1.27;;;24.60;93.20;;;;;;5038076;28;20025;-76
2023/05/21 12:19:06;;;;;;;3.05;1.60;;;26.20;92.50;;;;;;5037497;28;20031;-77
2023/05/21 12:21:32;;;;;;;3.40;1.58;;;26.00;92.70;;;;;;5055374;28;20029;-74
2023/05/21 12:23:58;;;;;;;2.55;0.93;;;25.20;93.00;;;;;;5055330;28;20029;-76
2023/05/21 12:26:25;;;;;;;2.92;1.23;;;25.10;94.30;;;;;;5037483;28;20067;-75
2023/05/21 12:28:52;;;;;;;5.50;1.40;;;25.50;95.40;;;;;;5055137;28;20017;-76
2023/05/21 12:31:21;;;;;;;4.35;1.58;;;25.60;93.10;;;;;;5055244;28;20061;-76
2023/05/21 12:33:50;;;;;;;4.97;1.88;;;25.40;94.10;;;;;;5055174;28;20025;-76
2023/05/21 12:36:26;;;;;;;3.58;1.48;;;25.30;93.90;;;;;;5055083;28;20383;-76
2023/05/21 12:38:52;;;;;;;2.95;1.05;;;25.20;93.00;;;;;;5037027;28;20029;-76
2023/05/21 12:41:18;;;;;;;3.67;1.20;;;25.10;93.90;;;;;;5054924;28;20477;-76
2023/05/21 12:43:45;;;;;;;5.68;1.67;;;24.80;94.10;;;;;;5055026;28;20380;-75
2023/05/21 12:46:13;;;;;;;5.78;2.20;;;24.60;94.30;;;;;;5054957;28;20039;-76
2023/05/21 12:48:41;;;;;;;2.25;0.95;;;24.20;95.40;;;;;;5054971;28;20017;-74
2023/05/21 12:51:07;;;;;;;3.20;1.15;;;24.20;95.70;;;;;;5054844;28;20025;-76